createdAt,value
2023-05-01T00:02:28.463Z,101329.98
2023-05-01T00:04:56.601Z,101325.47
2023-05-01T00:07:25.798Z,101331.55
2023-05-01T00:09:53.836Z,101325.70
2023-05-01T00:12:22.079Z,101325.57
2023-05-01T00:14:50.028Z,101318.77
2023-05-01T00:17:17.932Z,101326.68
2023-05-01T00:19:46.051Z,101317.91
2023-05-01T00:22:13.979Z,101316.74
2023-05-01T00:24:42.230Z,101318.28
2023-05-01T00:27:10.255Z,101317.79
2023-05-01T00:29:38.134Z,101309.58
2023-05-01T00:32:07.059Z,101309.58
2023-05-01T00:34:35.103Z,101315.66
2023-05-01T00:37:03.215Z,101312.33
2023-05-01T00:39:31.272Z,101306.08
2023-05-01T00:41:59.311Z,101305.72
2023-05-01T00:44:27.424Z,101309.77
2023-05-01T00:46:55.495Z,101308.96
2023-05-01T00:49:23.510Z,101311.70
2023-05-01T00:51:51.448Z,101313.77
2023-05-01T00:54:19.442Z,101310.01
2023-05-01T00:56:48.617Z,101313.60
2023-05-01T00:59:16.591Z,101311.12
2023-05-01T01:01:44.716Z,101306.93
2023-05-01T01:04:12.718Z,101308.83
2023-05-01T01:06:52.487Z,101311.18
2023-05-01T01:09:36.362Z,101306.54
2023-05-01T01:12:42.954Z,101310.95
2023-05-01T01:15:29.359Z,101292.28
2023-05-01T01:18:30.728Z,101287.61
2023-05-01T01:21:20.046Z,101282.25
2023-05-01T01:24:25.855Z,101277.08
2023-05-01T01:27:27.801Z,101284.24
2023-05-01T01:30:33.871Z,101283.65
2023-05-01T01:33:16.996Z,101283.49
2023-05-01T01:35:50.532Z,101278.35
2023-05-01T01:38:19.195Z,101278.09
2023-05-01T01:41:07.341Z,101273.91
2023-05-01T01:43:42.162Z,101281.88
2023-05-01T01:46:10.105Z,101284.99
2023-05-01T01:48:40.548Z,101284.83
2023-05-01T01:51:20.685Z,101285.68
2023-05-01T01:53:51.992Z,101286.04
2023-05-01T01:56:20.136Z,101288.39
2023-05-01T01:58:48.041Z,101281.20
2023-05-01T02:01:16.064Z,101284.08
2023-05-01T02:03:44.641Z,101286.46
2023-05-01T02:06:13.469Z,101283.13
2023-05-01T02:08:41.523Z,101283.00
2023-05-01T02:11:09.459Z,101283.55
2023-05-01T02:13:37.692Z,101281.59
2023-05-01T02:16:05.906Z,101279.63
2023-05-01T02:18:33.865Z,101279.37
2023-05-01T02:21:01.826Z,101282.12
2023-05-01T02:23:29.818Z,101281.46
2023-05-01T02:25:58.267Z,101291.95
2023-05-01T02:28:26.349Z,101294.80
2023-05-01T02:30:54.378Z,101287.05
2023-05-01T02:33:22.348Z,101288.72
2023-05-01T02:35:50.900Z,101293.82
2023-05-01T02:38:18.876Z,101290.78
2023-05-01T02:40:48.970Z,101293.85
2023-05-01T02:43:18.038Z,101289.67
2023-05-01T02:45:45.938Z,101283.81
2023-05-01T02:48:15.321Z,101291.04
2023-05-01T02:50:43.464Z,101286.50
2023-05-01T02:53:11.526Z,101289.90
2023-05-01T02:55:39.577Z,101288.23
2023-05-01T02:58:07.626Z,101276.79
2023-05-01T03:00:36.566Z,101287.87
2023-05-01T03:03:04.668Z,101284.53
2023-05-01T03:05:32.672Z,101273.58
2023-05-01T03:08:00.593Z,101280.32
2023-05-01T03:10:28.485Z,101266.81
2023-05-01T03:12:56.402Z,101271.72
2023-05-01T03:15:24.426Z,101271.23
2023-05-01T03:17:52.497Z,101267.40
2023-05-01T03:20:20.546Z,101268.55
2023-05-01T03:22:48.510Z,101260.34
2023-05-01T03:25:16.755Z,101261.29
2023-05-01T03:27:44.732Z,101267.73
2023-05-01T03:30:13.308Z,101263.19
2023-05-01T03:32:41.352Z,101265.21
2023-05-01T03:35:10.586Z,101266.06
2023-05-01T03:37:38.581Z,101257.46
2023-05-01T03:40:07.104Z,101262.50
2023-05-01T03:42:35.061Z,101260.47
2023-05-01T03:45:02.987Z,101262.14
2023-05-01T03:47:31.122Z,101255.56
2023-05-01T03:49:59.514Z,101256.77
2023-05-01T03:52:27.776Z,101256.77
2023-05-01T03:54:55.755Z,101266.20
2023-05-01T03:57:24.595Z,101259.49
2023-05-01T03:59:52.588Z,101264.23
2023-05-01T04:02:20.620Z,101252.76
2023-05-01T04:04:48.758Z,101253.64
2023-05-01T04:07:16.723Z,101254.81
2023-05-01T04:09:45.179Z,101254.32
2023-05-01T04:12:13.112Z,101250.59
2023-05-01T04:14:41.132Z,101257.20
2023-05-01T04:17:09.056Z,101260.73
2023-05-01T04:19:37.095Z,101260.24
2023-05-01T04:22:05.120Z,101258.09
2023-05-01T04:24:33.026Z,101264.98
2023-05-01T04:27:00.979Z,101262.47
2023-05-01T04:29:28.958Z,101261.95
2023-05-01T04:31:57.060Z,101262.83
2023-05-01T04:34:25.102Z,101262.83
2023-05-01T04:36:53.261Z,101263.15
2023-05-01T04:39:21.364Z,101262.62
2023-05-01T04:41:49.601Z,101256.58
2023-05-01T04:44:17.761Z,101261.13
2023-05-01T04:46:46.032Z,101263.64
2023-05-01T04:49:14.372Z,101258.77
2023-05-01T04:51:42.281Z,101267.86
2023-05-01T04:54:10.265Z,101273.05
2023-05-01T04:56:38.190Z,101274.73
2023-05-01T04:59:06.093Z,101271.52
2023-05-01T05:01:34.142Z,101279.63
2023-05-01T05:04:02.435Z,101279.99
2023-05-01T05:06:30.650Z,101275.09
2023-05-01T05:08:59.225Z,101271.72
2023-05-01T05:11:27.861Z,101278.98
2023-05-01T05:13:55.882Z,101283.85
2023-05-01T05:16:23.923Z,101287.91
2023-05-01T05:18:52.441Z,101285.88
2023-05-01T05:21:20.656Z,101297.81
2023-05-01T05:23:48.675Z,101291.23
2023-05-01T05:26:16.769Z,101285.52
2023-05-01T05:28:44.748Z,101293.76
2023-05-01T05:31:12.841Z,101293.76
2023-05-01T05:33:40.813Z,101292.45
2023-05-01T05:36:08.804Z,101298.17
2023-05-01T05:38:36.722Z,101294.48
2023-05-01T05:41:04.781Z,101292.58
2023-05-01T05:43:33.513Z,101297.45
2023-05-01T05:46:02.004Z,101302.84
2023-05-01T05:48:30.254Z,101297.13
2023-05-01T05:50:58.898Z,101296.44
2023-05-01T05:53:27.048Z,101296.44
2023-05-01T05:55:55.078Z,101297.41
2023-05-01T05:58:24.428Z,101306.02
2023-05-01T06:00:54.355Z,101299.45
2023-05-01T06:03:22.664Z,101299.09
2023-05-01T06:05:51.095Z,101308.99
2023-05-01T06:08:19.119Z,101302.95
2023-05-01T06:10:47.425Z,101300.91
2023-05-01T06:13:16.248Z,101300.23
2023-05-01T06:15:45.141Z,101300.72
2023-05-01T06:18:13.295Z,101297.38
2023-05-01T06:20:41.428Z,101301.57
2023-05-01T06:23:10.961Z,101306.93
2023-05-01T06:25:39.344Z,101300.52
2023-05-01T06:28:07.415Z,101305.56
2023-05-01T06:30:35.380Z,101306.05
2023-05-01T06:33:03.776Z,101307.72
2023-05-01T06:35:31.870Z,101301.30
2023-05-01T06:37:59.843Z,101309.05
2023-05-01T06:40:27.812Z,101309.55
2023-05-01T06:42:55.999Z,101302.29
2023-05-01T06:45:24.039Z,101311.22
2023-05-01T06:47:52.096Z,101319.32
2023-05-01T06:50:20.405Z,101315.11
2023-05-01T06:52:48.431Z,101316.31
2023-05-01T06:55:16.528Z,101323.70
2023-05-01T06:57:44.467Z,101320.83
2023-05-01T07:00:13.277Z,101318.84
2023-05-01T07:02:42.186Z,101323.70
2023-05-01T07:05:10.571Z,101326.74
2023-05-01T07:07:42.228Z,101323.87
2023-05-01T07:10:15.532Z,101332.60
2023-05-01T07:12:43.471Z,101332.60
2023-05-01T07:15:11.611Z,101329.88
2023-05-01T07:17:39.740Z,101330.02
2023-05-01T07:20:08.384Z,101324.45
2023-05-01T07:22:36.372Z,101332.37
2023-05-01T07:25:04.823Z,101329.16
2023-05-01T07:27:32.828Z,101322.92
2023-05-01T07:30:01.916Z,101334.20
2023-05-01T07:32:29.885Z,101326.45
2023-05-01T07:34:57.952Z,101328.61
2023-05-01T07:37:26.182Z,101313.47
2023-05-01T07:39:54.403Z,101325.86
2023-05-01T07:42:22.617Z,101323.51
2023-05-01T07:44:51.989Z,101326.02
2023-05-01T07:47:19.986Z,101317.43
2023-05-01T07:49:47.976Z,101324.49
2023-05-01T07:52:16.862Z,101319.26
2023-05-01T07:54:44.905Z,101324.75
2023-05-01T07:57:12.908Z,101329.46
2023-05-01T07:59:40.959Z,101330.08
2023-05-01T08:02:09.003Z,101328.19
2023-05-01T08:04:37.133Z,101327.98
2023-05-01T08:07:05.238Z,101325.11
2023-05-01T08:09:33.369Z,101329.46
2023-05-01T08:12:01.915Z,101331.81
2023-05-01T08:14:30.120Z,101341.63
2023-05-01T08:16:58.196Z,101342.93
2023-05-01T08:19:26.908Z,101342.93
2023-05-01T08:21:55.155Z,101340.55
2023-05-01T08:24:23.286Z,101339.50
2023-05-01T08:26:51.412Z,101336.78
2023-05-01T08:29:19.407Z,101344.17
2023-05-01T08:31:47.414Z,101339.76
2023-05-01T08:34:15.495Z,101334.04
2023-05-01T08:36:43.471Z,101341.43
2023-05-01T08:39:11.429Z,101350.71
2023-05-01T08:41:39.737Z,101345.68
2023-05-01T08:44:09.967Z,101331.36
2023-05-01T08:46:50.965Z,101336.55
2023-05-01T08:49:19.946Z,101337.90
2023-05-01T08:51:48.826Z,101345.87
2023-05-01T08:54:16.978Z,101333.91
2023-05-01T08:56:48.722Z,101344.76
2023-05-01T08:59:17.029Z,101342.08
2023-05-01T09:01:45.065Z,101348.06
2023-05-01T09:04:13.330Z,101347.93
2023-05-01T09:06:41.692Z,101348.16
2023-05-01T09:09:09.760Z,101349.83
2023-05-01T09:11:37.984Z,101353.52
2023-05-01T09:14:07.040Z,101355.45
2023-05-01T09:16:35.131Z,101355.45
2023-05-01T09:19:03.297Z,101352.22
2023-05-01T09:21:33.394Z,101363.79
2023-05-01T09:24:01.424Z,101365.49
2023-05-01T09:26:29.458Z,101362.25
2023-05-01T09:29:01.137Z,101355.81
2023-05-01T09:31:30.398Z,101360.98
2023-05-01T09:34:02.610Z,101351.82
2023-05-01T09:36:32.470Z,101357.68
2023-05-01T09:39:03.906Z,101360.33
2023-05-01T09:41:34.868Z,101355.91
2023-05-01T09:44:03.154Z,101364.84
2023-05-01T09:46:31.142Z,101359.84
2023-05-01T09:49:04.606Z,101361.05
2023-05-01T09:51:34.281Z,101351.86
2023-05-01T09:54:05.622Z,101357.35
2023-05-01T09:56:35.287Z,101361.83
2023-05-01T09:59:17.294Z,101355.48
2023-05-01T10:01:46.849Z,101357.38
2023-05-01T10:04:15.273Z,101360.52
2023-05-01T10:06:43.517Z,101356.11
2023-05-01T10:09:18.560Z,101358.23
2023-05-01T10:11:57.834Z,101353.79
2023-05-01T10:14:28.061Z,101355.95
2023-05-01T10:16:56.087Z,101355.09
2023-05-01T10:19:24.481Z,101354.15
2023-05-01T10:21:52.538Z,101349.34
2023-05-01T10:24:20.596Z,101356.50
2023-05-01T10:26:50.414Z,101355.55
2023-05-01T10:29:18.825Z,101353.27
2023-05-01T10:31:46.891Z,101353.95
2023-05-01T10:34:18.285Z,101347.38
2023-05-01T10:37:00.717Z,101354.05
2023-05-01T10:39:35.925Z,101351.76
2023-05-01T10:42:09.814Z,101348.42
2023-05-01T10:44:38.099Z,101352.94
2023-05-01T10:47:32.805Z,101351.30
2023-05-01T10:50:10.583Z,101355.81
2023-05-01T10:53:17.859Z,101355.48
2023-05-01T10:55:47.462Z,101351.92
2023-05-01T10:58:16.343Z,101351.66
2023-05-01T11:00:44.469Z,101344.70
2023-05-01T11:03:24.753Z,101346.00
2023-05-01T11:06:18.792Z,101344.44
2023-05-01T11:08:46.964Z,101339.37
2023-05-01T11:11:26.814Z,101336.33
2023-05-01T11:14:01.664Z,101339.98
2023-05-01T11:16:39.241Z,101336.55
2023-05-01T11:19:08.719Z,101337.86
2023-05-01T11:21:38.056Z,101334.92
2023-05-01T11:24:06.953Z,101330.24
2023-05-01T11:26:35.394Z,101333.52
2023-05-01T11:29:03.464Z,101333.28
2023-05-01T11:31:31.646Z,101340.41
2023-05-01T11:34:00.366Z,101333.48
2023-05-01T11:36:28.834Z,101338.55
2023-05-01T11:39:00.973Z,101337.02
2023-05-01T11:41:29.039Z,101342.80
2023-05-01T11:44:00.647Z,101331.45
2023-05-01T11:46:32.939Z,101330.41
2023-05-01T11:49:02.679Z,101326.22
2023-05-01T11:51:30.985Z,101332.34
2023-05-01T11:54:05.710Z,101330.63
2023-05-01T11:56:34.397Z,101322.85
2023-05-01T11:59:12.231Z,101327.04
2023-05-01T12:01:42.350Z,101324.45
2023-05-01T12:04:10.393Z,101322.30
2023-05-01T12:06:47.209Z,101317.30
2023-05-01T12:09:25.587Z,101329.63
2023-05-01T12:11:54.211Z,101320.01
2023-05-01T12:14:26.011Z,101315.37
2023-05-01T12:16:54.629Z,101322.70
2023-05-01T12:19:24.101Z,101316.58
2023-05-01T12:22:09.774Z,101316.58
2023-05-01T12:24:38.998Z,101318.24
2023-05-01T12:27:08.600Z,101323.61
2023-05-01T12:29:43.092Z,101315.59
2023-05-01T12:32:11.177Z,101313.70
2023-05-01T12:34:39.918Z,101314.52
2023-05-01T12:37:07.905Z,101319.55
2023-05-01T12:39:43.742Z,101319.98
2023-05-01T12:42:19.384Z,101322.63
2023-05-01T12:44:47.497Z,101324.52
2023-05-01T12:47:15.718Z,101316.74
2023-05-01T12:49:43.740Z,101325.83
2023-05-01T12:52:11.708Z,101320.44
2023-05-01T12:54:40.928Z,101323.21
2023-05-01T12:57:16.584Z,101328.12
2023-05-01T12:59:48.552Z,101326.42
2023-05-01T13:02:18.701Z,101331.13
2023-05-01T13:04:47.724Z,101328.05
2023-05-01T13:07:17.197Z,101337.41
2023-05-01T13:09:59.449Z,101333.25
2023-05-01T13:12:28.593Z,101337.54
2023-05-01T13:14:56.602Z,101335.02
2023-05-01T13:17:25.769Z,101335.61
2023-05-01T13:20:04.268Z,101334.13
2023-05-01T13:22:39.632Z,101341.30
2023-05-01T13:25:17.390Z,101348.09
2023-05-01T13:27:52.470Z,101342.60
2023-05-01T13:30:33.166Z,101350.22
2023-05-01T13:33:01.977Z,101349.38
2023-05-01T13:35:30.119Z,101347.84
2023-05-01T13:37:58.376Z,101342.60
2023-05-01T13:40:26.977Z,101340.91
2023-05-01T13:42:58.029Z,101339.37
2023-05-01T13:45:26.053Z,101336.66
2023-05-01T13:47:54.163Z,101336.88
2023-05-01T13:50:22.896Z,101326.35
2023-05-01T13:52:50.996Z,101325.34
2023-05-01T13:55:19.030Z,101325.80
2023-05-01T13:57:46.970Z,101329.98
2023-05-01T14:00:21.453Z,101322.20
2023-05-01T14:02:50.150Z,101322.59
2023-05-01T14:05:18.204Z,101319.95
2023-05-01T14:07:54.952Z,101315.30
2023-05-01T14:10:23.693Z,101311.34
2023-05-01T14:12:52.301Z,101307.65
2023-05-01T14:15:20.308Z,101302.62
2023-05-01T14:17:50.405Z,101301.18
2023-05-01T14:20:18.502Z,101307.98
2023-05-01T14:22:52.960Z,101310.49
2023-05-01T14:25:31.252Z,101305.56
2023-05-01T14:28:00.170Z,101307.72
2023-05-01T14:30:35.334Z,101304.12
2023-05-01T14:33:04.640Z,101310.46
2023-05-01T14:35:32.648Z,101294.90
2023-05-01T14:38:14.512Z,101304.38
2023-05-01T14:40:43.261Z,101298.37
2023-05-01T14:43:12.151Z,101298.86
2023-05-01T14:45:43.189Z,101301.83
2023-05-01T14:48:12.286Z,101305.16
2023-05-01T14:50:40.366Z,101303.83
2023-05-01T14:53:08.966Z,101295.09
2023-05-01T14:55:37.069Z,101292.58
2023-05-01T14:58:05.001Z,101295.45
2023-05-01T15:00:32.958Z,101292.68
2023-05-01T15:03:01.284Z,101295.20
2023-05-01T15:05:30.120Z,101301.15
2023-05-01T15:07:58.188Z,101301.99
2023-05-01T15:10:26.156Z,101304.87
2023-05-01T15:12:54.938Z,101301.27
2023-05-01T15:15:22.958Z,101303.59
2023-05-01T15:17:51.155Z,101313.99
2023-05-01T15:20:19.239Z,101344.80
2023-05-01T15:22:47.275Z,101348.39
2023-05-01T15:25:16.061Z,101357.05
2023-05-01T15:27:45.870Z,101354.18
2023-05-01T15:30:14.203Z,101355.45
2023-05-01T15:32:42.444Z,101358.88
2023-05-01T15:35:10.931Z,101369.80
2023-05-01T15:37:38.984Z,101368.95
2023-05-01T15:40:07.728Z,101371.05
2023-05-01T15:42:35.686Z,101366.57
2023-05-01T15:45:04.817Z,101364.70
2023-05-01T15:47:32.849Z,101363.95
2023-05-01T15:50:01.196Z,101365.00
2023-05-01T15:52:29.470Z,101354.60
2023-05-01T15:54:57.636Z,101348.62
2023-05-01T15:57:26.312Z,101343.23
2023-05-01T15:59:57.088Z,101345.58
2023-05-01T16:02:25.472Z,101344.86
2023-05-01T16:04:54.030Z,101346.85
2023-05-01T16:07:23.074Z,101348.49
2023-05-01T16:09:51.121Z,101348.75
2023-05-01T16:12:19.167Z,101359.70
2023-05-01T16:14:47.321Z,101357.19
2023-05-01T16:17:17.455Z,101356.70
2023-05-01T16:19:45.628Z,101362.29
2023-05-01T16:22:14.451Z,101353.55
2023-05-01T16:24:42.484Z,101352.70
2023-05-01T16:27:13.857Z,101354.73
2023-05-01T16:29:42.239Z,101359.41
2023-05-01T16:32:12.601Z,101364.77
2023-05-01T16:34:41.381Z,101365.30
2023-05-01T16:37:09.405Z,101371.02
2023-05-01T16:39:38.449Z,101370.20
2023-05-01T16:42:06.477Z,101375.40
2023-05-01T16:44:36.434Z,101374.38
2023-05-01T16:47:04.830Z,101378.08
2023-05-01T16:49:32.812Z,101393.09
2023-05-01T16:52:03.875Z,101391.26
2023-05-01T16:54:37.429Z,101396.03
2023-05-01T16:57:05.738Z,101391.12
2023-05-01T16:59:33.886Z,101400.21
2023-05-01T17:02:01.978Z,101393.97
2023-05-01T17:04:30.365Z,101404.59
2023-05-01T17:06:58.650Z,101412.90
2023-05-01T17:09:26.696Z,101403.45
2023-05-01T17:11:57.746Z,101401.66
2023-05-01T17:14:25.958Z,101407.57
2023-05-01T17:16:54.421Z,101411.13
2023-05-01T17:19:22.562Z,101420.06
2023-05-01T17:21:50.569Z,101423.07
2023-05-01T17:24:18.557Z,101429.64
2023-05-01T17:26:46.536Z,101420.55
2023-05-01T17:29:14.623Z,101413.00
2023-05-01T17:31:42.889Z,101413.33
2023-05-01T17:34:10.874Z,101409.99
2023-05-01T17:36:39.144Z,101419.44
2023-05-01T17:39:07.253Z,101420.13
2023-05-01T17:41:35.227Z,101428.86
2023-05-01T17:44:03.305Z,101432.06
2023-05-01T17:46:31.567Z,101432.75
2023-05-01T17:49:00.109Z,101433.47
2023-05-01T17:51:28.060Z,101433.47
2023-05-01T17:53:56.111Z,101445.43
2023-05-01T17:56:24.241Z,101445.23
2023-05-01T17:58:52.198Z,101449.98
2023-05-01T18:01:20.842Z,101445.79
2023-05-01T18:03:50.260Z,101450.66
2023-05-01T18:06:18.791Z,101450.66
2023-05-01T18:08:46.959Z,101455.57
2023-05-01T18:11:15.310Z,101456.06
2023-05-01T18:13:45.162Z,101462.27
2023-05-01T18:16:13.268Z,101467.50
2023-05-01T18:18:41.887Z,101474.53
2023-05-01T18:21:09.891Z,101476.92
2023-05-01T18:23:38.102Z,101488.36
2023-05-01T18:26:06.473Z,101494.25
2023-05-01T18:28:34.926Z,101494.58
2023-05-01T18:31:03.056Z,101507.72
2023-05-01T18:33:31.070Z,101512.63
2023-05-01T18:35:59.476Z,101519.00
2023-05-01T18:38:28.970Z,101525.05
2023-05-01T18:40:56.971Z,101525.41
2023-05-01T18:43:25.094Z,101536.36
2023-05-01T18:45:53.035Z,101533.65
2023-05-01T18:48:21.144Z,101539.04
2023-05-01T18:50:57.492Z,101549.67
2023-05-01T18:53:35.486Z,101550.65
2023-05-01T18:56:03.541Z,101548.98
2023-05-01T18:58:31.644Z,101551.34
2023-05-01T19:00:59.654Z,101556.08
2023-05-01T19:03:27.873Z,101567.36
2023-05-01T19:05:55.859Z,101560.27
2023-05-01T19:08:23.866Z,101561.44
2023-05-01T19:10:51.835Z,101568.86
2023-05-01T19:13:19.886Z,101563.83
2023-05-01T19:15:47.932Z,101571.87
2023-05-01T19:18:16.520Z,101567.36
2023-05-01T19:20:44.826Z,101562.29
2023-05-01T19:23:12.993Z,101565.16
2023-05-01T19:25:40.940Z,101568.01
2023-05-01T19:28:08.929Z,101557.05
2023-05-01T19:30:37.219Z,101556.24
2023-05-01T19:33:05.698Z,101548.69
2023-05-01T19:35:33.774Z,101557.58
2023-05-01T19:38:01.895Z,101552.68
2023-05-01T19:40:30.082Z,101558.76
2023-05-01T19:42:58.167Z,101563.95
2023-05-01T19:45:26.242Z,101560.62
2023-05-01T19:47:54.478Z,101560.42
2023-05-01T19:50:22.651Z,101551.01
2023-05-01T19:52:50.886Z,101543.09
2023-05-01T19:55:19.447Z,101550.16
2023-05-01T19:57:47.570Z,101551.66
2023-05-01T20:00:15.877Z,101551.37
2023-05-01T20:02:44.055Z,101553.37
2023-05-01T20:05:12.351Z,101550.68
2023-05-01T20:07:40.571Z,101556.41
2023-05-01T20:10:08.929Z,101558.73
2023-05-01T20:12:36.956Z,101566.84
2023-05-01T20:15:05.800Z,101572.00
2023-05-01T20:17:33.888Z,101576.58
2023-05-01T20:20:02.013Z,101587.47
2023-05-01T20:22:30.019Z,101580.41
2023-05-01T20:24:58.477Z,101582.43
2023-05-01T20:27:27.452Z,101579.75
2023-05-01T20:29:55.517Z,101584.46
2023-05-01T20:32:23.967Z,101588.15
2023-05-01T20:34:52.016Z,101583.25
2023-05-01T20:37:20.713Z,101588.97
2023-05-01T20:39:48.723Z,101586.95
2023-05-01T20:42:16.727Z,101592.86
2023-05-01T20:44:44.827Z,101592.34
2023-05-01T20:47:12.911Z,101592.86
2023-05-01T20:49:41.594Z,101587.47
2023-05-01T20:52:09.768Z,101596.85
2023-05-01T20:54:38.464Z,101594.33
2023-05-01T20:57:06.746Z,101598.55
2023-05-01T20:59:34.799Z,101606.63
2023-05-01T21:02:06.256Z,101613.16
2023-05-01T21:04:34.638Z,101617.52
2023-05-01T21:07:02.705Z,101610.29
2023-05-01T21:09:30.666Z,101625.10
2023-05-01T21:11:58.682Z,101627.45
2023-05-01T21:14:28.423Z,101622.58
2023-05-01T21:16:56.425Z,101628.63
2023-05-01T21:19:24.425Z,101620.88
2023-05-01T21:21:55.268Z,101627.13
2023-05-01T21:24:26.994Z,101627.62
2023-05-01T21:26:55.320Z,101632.85
2023-05-01T21:29:23.404Z,101630.30
2023-05-01T21:31:51.535Z,101639.39
2023-05-01T21:34:19.872Z,101639.39
2023-05-01T21:36:47.898Z,101634.52
2023-05-01T21:39:16.902Z,101645.11
2023-05-01T21:41:45.025Z,101661.42
2023-05-01T21:44:13.008Z,101671.98
2023-05-01T21:46:41.060Z,101675.35
2023-05-01T21:49:09.054Z,101669.63
2023-05-01T21:51:37.093Z,101674.50
2023-05-01T21:56:30.996Z,101673.33
2023-05-01T21:59:03.257Z,101683.63
2023-05-01T22:01:31.363Z,101683.92
2023-05-01T22:03:59.695Z,101690.82
2023-05-01T22:06:28.131Z,101693.34
2023-05-01T22:08:56.151Z,101692.84
2023-05-01T22:11:25.691Z,101687.62
2023-05-01T22:13:53.644Z,101690.16
2023-05-01T22:16:21.755Z,101688.98
2023-05-01T22:18:51.770Z,101688.98
2023-05-01T22:21:19.769Z,101686.96
2023-05-01T22:23:47.715Z,101683.27
2023-05-01T22:26:15.902Z,101682.94
2023-05-01T22:28:43.927Z,101676.37
2023-05-01T22:31:12.144Z,101677.25
2023-05-01T22:33:40.263Z,101673.33
2023-05-01T22:36:08.207Z,101667.96
2023-05-01T22:38:36.183Z,101666.27
2023-05-01T22:41:04.127Z,101657.50
2023-05-01T22:43:32.219Z,101652.83
2023-05-01T22:46:01.016Z,101646.58
2023-05-01T22:48:29.011Z,101643.18
2023-05-01T22:50:56.929Z,101633.60
2023-05-01T22:53:25.115Z,101635.95
2023-05-01T22:55:53.345Z,101644.52
2023-05-01T22:58:21.695Z,101639.16
2023-05-01T23:00:49.742Z,101646.87
2023-05-01T23:03:18.027Z,101647.73
2023-05-01T23:05:46.177Z,101654.79
2023-05-01T23:08:14.145Z,101663.35
2023-05-01T23:10:42.800Z,101666.39
2023-05-01T23:13:21.090Z,101668.91
2023-05-01T23:15:51.135Z,101675.81
2023-05-01T23:18:31.417Z,101673.95
2023-05-01T23:20:59.385Z,101682.52
2023-05-01T23:23:30.900Z,101688.53
2023-05-01T23:25:59.034Z,101674.93
2023-05-01T23:28:27.772Z,101679.44
2023-05-01T23:30:57.110Z,101680.62
2023-05-01T23:33:43.243Z,101678.95
2023-05-01T23:36:14.262Z,101678.95
2023-05-01T23:38:42.309Z,101679.08
2023-05-01T23:41:10.322Z,101677.09
2023-05-01T23:43:39.322Z,101679.93
2023-05-01T23:46:08.878Z,101685.98
2023-05-01T23:48:37.203Z,101683.43
2023-05-01T23:51:05.418Z,101680.26
2023-05-01T23:53:33.431Z,101679.73
2023-05-01T23:56:01.472Z,101681.76
2023-05-01T23:58:29.413Z,101687.13
